sensor_id;sensor_type;location;lat;lon;timestamp;P1;durP1;ratioP1;P2;durP2;ratioP2
11211;SDS011;5663;50.864;12.096;2023-07-09T00:01:26;9.70;;;7.83;;
11211;SDS011;5663;50.864;12.096;2023-07-09T00:03:56;11.77;;;8.77;;
11211;SDS011;5663;50.864;12.096;2023-07-09T00:06:26;11.10;;;8.10;;
11211;SDS011;5663;50.864;12.096;2023-07-09T00:08:55;10.63;;;8.50;;
11211;SDS011;5663;50.864;12.096;2023-07-09T00:11:25;8.63;;;7.37;;
11211;SDS011;5663;50.864;12.096;2023-07-09T00:13:59;9.70;;;8.10;;
11211;SDS011;5663;50.864;12.096;2023-07-09T00:16:46;15.90;;;7.83;;
11211;SDS011;5663;50.864;12.096;2023-07-09T00:19:20;11.03;;;7.97;;
11211;SDS011;5663;50.864;12.096;2023-07-09T00:21:58;10.20;;;7.83;;
11211;SDS011;5663;50.864;12.096;2023-07-09T00:24:28;12.33;;;8.33;;
11211;SDS011;5663;50.864;12.096;2023-07-09T00:26:58;10.47;;;8.20;;
11211;SDS011;5663;50.864;12.096;2023-07-09T00:29:32;11.60;;;8.17;;
11211;SDS011;5663;50.864;12.096;2023-07-09T00:35:11;11.57;;;8.47;;
11211;SDS011;5663;50.864;12.096;2023-07-09T00:37:45;9.80;;;7.73;;
11211;SDS011;5663;50.864;12.096;2023-07-09T00:40:19;10.47;;;7.80;;
11211;SDS011;5663;50.864;12.096;2023-07-09T00:43:10;9.20;;;7.83;;
11211;SDS011;5663;50.864;12.096;2023-07-09T00:49:02;8.73;;;7.33;;
11211;SDS011;5663;50.864;12.096;2023-07-09T00:51:40;12.80;;;8.20;;
11211;SDS011;5663;50.864;12.096;2023-07-09T00:54:18;9.33;;;7.43;;
11211;SDS011;5663;50.864;12.096;2023-07-09T00:57:09;10.30;;;8.00;;
11211;SDS011;5663;50.864;12.096;2023-07-09T00:59:53;8.57;;;7.40;;
11211;SDS011;5663;50.864;12.096;2023-07-09T01:02:51;10.23;;;8.00;;
11211;SDS011;5663;50.864;12.096;2023-07-09T01:05:26;7.93;;;7.13;;
11211;SDS011;5663;50.864;12.096;2023-07-09T01:08:03;13.13;;;8.23;;
11211;SDS011;5663;50.864;12.096;2023-07-09T01:11:02;8.23;;;7.00;;
11211;SDS011;5663;50.864;12.096;2023-07-09T01:13:43;10.07;;;7.40;;
11211;SDS011;5663;50.864;12.096;2023-07-09T01:16:22;9.90;;;7.60;;
11211;SDS011;5663;50.864;12.096;2023-07-09T01:19:10;9.00;;;6.37;;
11211;SDS011;5663;50.864;12.096;2023-07-09T01:22:03;10.00;;;6.57;;
11211;SDS011;5663;50.864;12.096;2023-07-09T01:24:48;7.57;;;6.57;;
11211;SDS011;5663;50.864;12.096;2023-07-09T01:27:37;10.07;;;7.70;;
11211;SDS011;5663;50.864;12.096;2023-07-09T01:39:52;8.87;;;7.53;;
11211;SDS011;5663;50.864;12.096;2023-07-09T01:42:26;9.00;;;7.30;;
11211;SDS011;5663;50.864;12.096;2023-07-09T01:45:04;11.07;;;8.10;;
11211;SDS011;5663;50.864;12.096;2023-07-09T01:47:44;9.60;;;7.10;;
11211;SDS011;5663;50.864;12.096;2023-07-09T01:50:28;7.63;;;6.63;;
11211;SDS011;5663;50.864;12.096;2023-07-09T01:53:11;8.37;;;7.00;;
11211;SDS011;5663;50.864;12.096;2023-07-09T01:55:47;7.97;;;6.43;;
11211;SDS011;5663;50.864;12.096;2023-07-09T01:58:22;8.63;;;7.40;;
11211;SDS011;5663;50.864;12.096;2023-07-09T02:01:02;8.30;;;6.97;;
11211;SDS011;5663;50.864;12.096;2023-07-09T02:03:38;8.27;;;7.30;;
11211;SDS011;5663;50.864;12.096;2023-07-09T02:06:12;7.90;;;7.07;;
11211;SDS011;5663;50.864;12.096;2023-07-09T02:08:46;10.97;;;7.90;;
11211;SDS011;5663;50.864;12.096;2023-07-09T02:11:22;8.87;;;7.50;;
11211;SDS011;5663;50.864;12.096;2023-07-09T02:13:59;8.80;;;7.10;;
11211;SDS011;5663;50.864;12.096;2023-07-09T02:16:30;8.23;;;7.07;;
11211;SDS011;5663;50.864;12.096;2023-07-09T02:19:00;10.90;;;7.53;;
11211;SDS011;5663;50.864;12.096;2023-07-09T02:21:33;8.57;;;7.07;;
11211;SDS011;5663;50.864;12.096;2023-07-09T02:24:10;9.40;;;6.70;;
11211;SDS011;5663;50.864;12.096;2023-07-09T02:26:50;6.23;;;5.63;;
11211;SDS011;5663;50.864;12.096;2023-07-09T02:29:24;8.03;;;7.13;;
11211;SDS011;5663;50.864;12.096;2023-07-09T02:32:04;8.00;;;6.53;;
11211;SDS011;5663;50.864;12.096;2023-07-09T02:34:35;12.43;;;7.10;;
11211;SDS011;5663;50.864;12.096;2023-07-09T02:37:04;7.90;;;7.10;;
11211;SDS011;5663;50.864;12.096;2023-07-09T02:39:37;8.20;;;7.20;;
11211;SDS011;5663;50.864;12.096;2023-07-09T02:42:09;6.77;;;6.00;;
11211;SDS011;5663;50.864;12.096;2023-07-09T02:44:50;12.37;;;8.00;;
11211;SDS011;5663;50.864;12.096;2023-07-09T02:47:32;7.33;;;6.53;;
11211;SDS011;5663;50.864;12.096;2023-07-09T02:50:04;8.30;;;7.33;;
11211;SDS011;5663;50.864;12.096;2023-07-09T02:52:34;8.37;;;6.87;;
11211;SDS011;5663;50.864;12.096;2023-07-09T02:55:03;7.87;;;6.83;;
11211;SDS011;5663;50.864;12.096;2023-07-09T02:57:39;8.93;;;6.83;;
11211;SDS011;5663;50.864;12.096;2023-07-09T03:00:08;8.57;;;6.63;;
11211;SDS011;5663;50.864;12.096;2023-07-09T03:02:39;7.33;;;6.60;;
11211;SDS011;5663;50.864;12.096;2023-07-09T03:05:07;8.97;;;6.83;;
11211;SDS011;5663;50.864;12.096;2023-07-09T03:07:37;9.00;;;7.40;;
11211;SDS011;5663;50.864;12.096;2023-07-09T03:10:08;9.00;;;7.10;;
11211;SDS011;5663;50.864;12.096;2023-07-09T03:12:40;6.43;;;5.83;;
11211;SDS011;5663;50.864;12.096;2023-07-09T03:15:09;7.67;;;6.80;;
11211;SDS011;5663;50.864;12.096;2023-07-09T03:17:39;8.40;;;7.27;;
11211;SDS011;5663;50.864;12.096;2023-07-09T03:20:08;7.13;;;6.30;;
11211;SDS011;5663;50.864;12.096;2023-07-09T03:22:39;8.57;;;6.97;;
11211;SDS011;5663;50.864;12.096;2023-07-09T03:25:08;8.77;;;6.63;;
11211;SDS011;5663;50.864;12.096;2023-07-09T03:27:40;9.13;;;7.50;;
11211;SDS011;5663;50.864;12.096;2023-07-09T03:30:10;7.57;;;6.10;;
11211;SDS011;5663;50.864;12.096;2023-07-09T03:32:44;7.57;;;6.20;;
11211;SDS011;5663;50.864;12.096;2023-07-09T03:35:17;9.03;;;7.13;;
11211;SDS011;5663;50.864;12.096;2023-07-09T03:37:47;9.57;;;7.33;;
11211;SDS011;5663;50.864;12.096;2023-07-09T03:40:20;8.80;;;7.33;;
11211;SDS011;5663;50.864;12.096;2023-07-09T03:50:22;7.83;;;6.73;;
11211;SDS011;5663;50.864;12.096;2023-07-09T03:52:57;8.03;;;7.23;;
11211;SDS011;5663;50.864;12.096;2023-07-09T03:55:28;6.77;;;6.07;;
11211;SDS011;5663;50.864;12.096;2023-07-09T03:57:57;7.93;;;7.13;;
11211;SDS011;5663;50.864;12.096;2023-07-09T04:00:30;9.53;;;6.63;;
11211;SDS011;5663;50.864;12.096;2023-07-09T04:03:01;7.70;;;6.30;;
11211;SDS011;5663;50.864;12.096;2023-07-09T04:05:31;7.30;;;6.30;;
11211;SDS011;5663;50.864;12.096;2023-07-09T04:08:03;7.00;;;6.30;;
11211;SDS011;5663;50.864;12.096;2023-07-09T04:10:33;9.07;;;6.77;;
11211;SDS011;5663;50.864;12.096;2023-07-09T04:13:06;8.00;;;5.90;;
11211;SDS011;5663;50.864;12.096;2023-07-09T04:15:36;7.27;;;6.03;;
11211;SDS011;5663;50.864;12.096;2023-07-09T04:18:28;8.87;;;6.60;;
11211;SDS011;5663;50.864;12.096;2023-07-09T04:21:07;9.03;;;7.13;;
11211;SDS011;5663;50.864;12.096;2023-07-09T04:23:55;7.57;;;6.33;;
11211;SDS011;5663;50.864;12.096;2023-07-09T04:26:39;6.47;;;5.83;;
11211;SDS011;5663;50.864;12.096;2023-07-09T04:29:24;6.90;;;5.90;;
11211;SDS011;5663;50.864;12.096;2023-07-09T04:32:06;6.97;;;6.27;;
11211;SDS011;5663;50.864;12.096;2023-07-09T04:34:50;7.50;;;6.23;;
11211;SDS011;5663;50.864;12.096;2023-07-09T04:37:24;7.00;;;6.30;;
11211;SDS011;5663;50.864;12.096;2023-07-09T04:40:02;9.77;;;6.90;;
11211;SDS011;5663;50.864;12.096;2023-07-09T04:42:34;6.40;;;5.23;;
11211;SDS011;5663;50.864;12.096;2023-07-09T04:45:03;7.53;;;6.33;;
11211;SDS011;5663;50.864;12.096;2023-07-09T04:47:37;9.40;;;6.30;;
11211;SDS011;5663;50.864;12.096;2023-07-09T04:50:10;8.57;;;5.87;;
11211;SDS011;5663;50.864;12.096;2023-07-09T04:52:50;9.33;;;6.80;;
11211;SDS011;5663;50.864;12.096;2023-07-09T04:55:38;7.37;;;6.50;;
11211;SDS011;5663;50.864;12.096;2023-07-09T04:58:43;9.47;;;5.67;;
11211;SDS011;5663;50.864;12.096;2023-07-09T05:01:25;6.93;;;5.83;;
11211;SDS011;5663;50.864;12.096;2023-07-09T05:04:12;6.37;;;5.77;;
11211;SDS011;5663;50.864;12.096;2023-07-09T05:06:51;8.37;;;6.33;;
11211;SDS011;5663;50.864;12.096;2023-07-09T05:09:24;6.53;;;5.80;;
11211;SDS011;5663;50.864;12.096;2023-07-09T05:11:56;8.53;;;6.20;;
11211;SDS011;5663;50.864;12.096;2023-07-09T05:14:31;7.47;;;6.43;;
11211;SDS011;5663;50.864;12.096;2023-07-09T05:17:04;8.67;;;6.77;;
11211;SDS011;5663;50.864;12.096;2023-07-09T05:20:14;7.50;;;6.20;;
11211;SDS011;5663;50.864;12.096;2023-07-09T05:22:50;7.17;;;6.43;;
11211;SDS011;5663;50.864;12.096;2023-07-09T05:25:28;13.03;;;6.77;;
11211;SDS011;5663;50.864;12.096;2023-07-09T05:27:57;8.53;;;6.47;;
11211;SDS011;5663;50.864;12.096;2023-07-09T05:30:31;8.27;;;6.50;;
11211;SDS011;5663;50.864;12.096;2023-07-09T05:33:00;6.73;;;5.80;;
11211;SDS011;5663;50.864;12.096;2023-07-09T05:35:29;6.73;;;6.00;;
11211;SDS011;5663;50.864;12.096;2023-07-09T05:37:59;7.20;;;6.40;;
11211;SDS011;5663;50.864;12.096;2023-07-09T05:40:32;7.57;;;6.00;;
11211;SDS011;5663;50.864;12.096;2023-07-09T05:46:50;10.23;;;5.87;;
11211;SDS011;5663;50.864;12.096;2023-07-09T05:49:23;7.00;;;5.25;;
11211;SDS011;5663;50.864;12.096;2023-07-09T05:54:51;7.05;;;5.47;;
11211;SDS011;5663;50.864;12.096;2023-07-09T05:57:25;5.43;;;4.90;;
11211;SDS011;5663;50.864;12.096;2023-07-09T05:59:56;6.68;;;5.28;;
11211;SDS011;5663;50.864;12.096;2023-07-09T06:02:27;7.03;;;5.07;;
11211;SDS011;5663;50.864;12.096;2023-07-09T06:05:00;5.72;;;4.90;;
11211;SDS011;5663;50.864;12.096;2023-07-09T06:07:29;6.65;;;5.47;;
11211;SDS011;5663;50.864;12.096;2023-07-09T06:09:58;5.40;;;4.80;;
11211;SDS011;5663;50.864;12.096;2023-07-09T06:12:53;5.40;;;4.90;;
11211;SDS011;5663;50.864;12.096;2023-07-09T06:15:42;7.38;;;5.50;;
11211;SDS011;5663;50.864;12.096;2023-07-09T06:18:11;6.70;;;5.50;;
11211;SDS011;5663;50.864;12.096;2023-07-09T06:20:46;5.15;;;4.65;;
11211;SDS011;5663;50.864;12.096;2023-07-09T06:27:46;9.57;;;6.10;;
11211;SDS011;5663;50.864;12.096;2023-07-09T06:30:54;11.13;;;5.75;;
11211;SDS011;5663;50.864;12.096;2023-07-09T06:33:45;6.15;;;5.45;;
11211;SDS011;5663;50.864;12.096;2023-07-09T06:36:44;7.35;;;5.28;;
11211;SDS011;5663;50.864;12.096;2023-07-09T06:39:17;8.02;;;5.45;;
11211;SDS011;5663;50.864;12.096;2023-07-09T06:45:36;6.18;;;5.57;;
11211;SDS011;5663;50.864;12.096;2023-07-09T06:48:59;9.35;;;5.60;;
11211;SDS011;5663;50.864;12.096;2023-07-09T06:51:47;5.47;;;4.97;;
11211;SDS011;5663;50.864;12.096;2023-07-09T06:54:37;9.50;;;5.25;;
11211;SDS011;5663;50.864;12.096;2023-07-09T06:57:14;5.85;;;5.25;;
11211;SDS011;5663;50.864;12.096;2023-07-09T07:00:11;7.57;;;5.70;;
11211;SDS011;5663;50.864;12.096;2023-07-09T07:02:55;6.75;;;5.32;;
11211;SDS011;5663;50.864;12.096;2023-07-09T07:17:04;6.10;;;5.50;;
11211;SDS011;5663;50.864;12.096;2023-07-09T08:28:55;6.35;;;5.75;;
11211;SDS011;5663;50.864;12.096;2023-07-09T08:32:24;6.88;;;5.75;;
11211;SDS011;5663;50.864;12.096;2023-07-09T08:59:07;6.88;;;5.05;;
11211;SDS011;5663;50.864;12.096;2023-07-09T09:29:57;6.47;;;5.30;;
11211;SDS011;5663;50.864;12.096;2023-07-09T10:24:37;6.13;;;4.85;;
11211;SDS011;5663;50.864;12.096;2023-07-09T15:19:44;7.63;;;5.20;;
11211;SDS011;5663;50.864;12.096;2023-07-09T15:23:07;8.43;;;5.00;;
11211;SDS011;5663;50.864;12.096;2023-07-09T15:36:52;8.10;;;5.65;;
11211;SDS011;5663;50.864;12.096;2023-07-09T15:58:08;8.05;;;5.22;;
11211;SDS011;5663;50.864;12.096;2023-07-09T16:09:11;6.95;;;5.35;;
11211;SDS011;5663;50.864;12.096;2023-07-09T17:51:59;11.45;;;5.90;;
11211;SDS011;5663;50.864;12.096;2023-07-09T17:54:52;8.30;;;5.55;;
11211;SDS011;5663;50.864;12.096;2023-07-09T17:58:12;9.40;;;5.22;;
11211;SDS011;5663;50.864;12.096;2023-07-09T18:01:05;9.23;;;5.30;;
11211;SDS011;5663;50.864;12.096;2023-07-09T18:26:27;6.78;;;5.20;;
11211;SDS011;5663;50.864;12.096;2023-07-09T18:44:03;6.65;;;4.60;;
11211;SDS011;5663;50.864;12.096;2023-07-09T18:47:24;8.40;;;4.68;;
11211;SDS011;5663;50.864;12.096;2023-07-09T18:49:59;6.28;;;5.03;;
11211;SDS011;5663;50.864;12.096;2023-07-09T18:52:51;6.88;;;5.35;;
11211;SDS011;5663;50.864;12.096;2023-07-09T18:55:58;8.88;;;4.97;;
11211;SDS011;5663;50.864;12.096;2023-07-09T19:31:05;6.82;;;5.22;;
11211;SDS011;5663;50.864;12.096;2023-07-09T19:34:07;7.53;;;5.32;;
11211;SDS011;5663;50.864;12.096;2023-07-09T19:36:57;9.77;;;5.30;;
11211;SDS011;5663;50.864;12.096;2023-07-09T19:40:19;6.15;;;5.35;;
11211;SDS011;5663;50.864;12.096;2023-07-09T19:49:34;7.93;;;5.20;;
11211;SDS011;5663;50.864;12.096;2023-07-09T19:52:38;7.85;;;5.60;;
11211;SDS011;5663;50.864;12.096;2023-07-09T19:55:51;8.50;;;5.57;;
11211;SDS011;5663;50.864;12.096;2023-07-09T19:58:56;8.25;;;5.53;;
11211;SDS011;5663;50.864;12.096;2023-07-09T20:42:22;8.55;;;5.55;;
11211;SDS011;5663;50.864;12.096;2023-07-09T20:45:15;7.60;;;5.88;;
11211;SDS011;5663;50.864;12.096;2023-07-09T20:48:08;7.53;;;5.22;;
11211;SDS011;5663;50.864;12.096;2023-07-09T20:50:59;9.43;;;6.13;;
11211;SDS011;5663;50.864;12.096;2023-07-09T20:53:55;8.15;;;5.88;;
11211;SDS011;5663;50.864;12.096;2023-07-09T21:05:40;7.75;;;5.60;;
11211;SDS011;5663;50.864;12.096;2023-07-09T21:08:13;7.85;;;5.50;;
11211;SDS011;5663;50.864;12.096;2023-07-09T21:10:48;8.18;;;6.25;;
11211;SDS011;5663;50.864;12.096;2023-07-09T21:13:24;8.07;;;5.18;;
11211;SDS011;5663;50.864;12.096;2023-07-09T21:15:54;7.53;;;5.50;;
11211;SDS011;5663;50.864;12.096;2023-07-09T21:18:30;6.43;;;4.80;;
11211;SDS011;5663;50.864;12.096;2023-07-09T21:21:17;8.73;;;5.75;;
11211;SDS011;5663;50.864;12.096;2023-07-09T21:23:52;7.22;;;5.55;;
11211;SDS011;5663;50.864;12.096;2023-07-09T21:26:23;9.48;;;5.80;;
11211;SDS011;5663;50.864;12.096;2023-07-09T21:28:54;8.77;;;5.88;;
11211;SDS011;5663;50.864;12.096;2023-07-09T21:31:24;10.43;;;5.70;;
11211;SDS011;5663;50.864;12.096;2023-07-09T21:33:54;7.88;;;5.35;;
11211;SDS011;5663;50.864;12.096;2023-07-09T21:36:26;6.32;;;5.32;;
11211;SDS011;5663;50.864;12.096;2023-07-09T21:38:59;6.75;;;5.75;;
11211;SDS011;5663;50.864;12.096;2023-07-09T21:41:30;6.20;;;5.15;;
11211;SDS011;5663;50.864;12.096;2023-07-09T21:43:58;9.80;;;5.35;;
11211;SDS011;5663;50.864;12.096;2023-07-09T21:46:27;6.88;;;5.40;;
11211;SDS011;5663;50.864;12.096;2023-07-09T21:48:58;6.30;;;5.10;;
11211;SDS011;5663;50.864;12.096;2023-07-09T21:51:35;9.50;;;5.90;;
11211;SDS011;5663;50.864;12.096;2023-07-09T21:54:08;7.88;;;5.32;;
11211;SDS011;5663;50.864;12.096;2023-07-09T21:56:54;7.28;;;5.30;;
11211;SDS011;5663;50.864;12.096;2023-07-09T21:59:26;9.02;;;6.72;;
11211;SDS011;5663;50.864;12.096;2023-07-09T22:01:58;6.72;;;5.47;;
11211;SDS011;5663;50.864;12.096;2023-07-09T22:04:33;9.30;;;5.93;;
11211;SDS011;5663;50.864;12.096;2023-07-09T22:09:56;6.93;;;4.60;;
11211;SDS011;5663;50.864;12.096;2023-07-09T22:12:32;6.38;;;5.35;;
11211;SDS011;5663;50.864;12.096;2023-07-09T22:15:09;6.75;;;5.07;;
11211;SDS011;5663;50.864;12.096;2023-07-09T22:17:43;6.13;;;4.90;;
11211;SDS011;5663;50.864;12.096;2023-07-09T22:20:17;14.65;;;5.40;;
11211;SDS011;5663;50.864;12.096;2023-07-09T22:22:55;6.15;;;4.95;;
11211;SDS011;5663;50.864;12.096;2023-07-09T22:25:25;5.80;;;4.82;;
11211;SDS011;5663;50.864;12.096;2023-07-09T22:27:57;9.07;;;5.70;;
11211;SDS011;5663;50.864;12.096;2023-07-09T22:30:28;6.13;;;5.43;;
11211;SDS011;5663;50.864;12.096;2023-07-09T22:33:01;5.88;;;4.65;;
11211;SDS011;5663;50.864;12.096;2023-07-09T22:35:34;6.25;;;5.30;;
11211;SDS011;5663;50.864;12.096;2023-07-09T22:38:09;5.80;;;5.20;;
11211;SDS011;5663;50.864;12.096;2023-07-09T22:40:48;7.55;;;5.35;;
11211;SDS011;5663;50.864;12.096;2023-07-09T22:43:20;10.05;;;5.18;;
11211;SDS011;5663;50.864;12.096;2023-07-09T22:45:53;6.28;;;4.90;;
11211;SDS011;5663;50.864;12.096;2023-07-09T22:48:24;11.27;;;6.13;;
11211;SDS011;5663;50.864;12.096;2023-07-09T22:50:58;9.27;;;6.20;;
11211;SDS011;5663;50.864;12.096;2023-07-09T22:53:29;14.35;;;5.07;;
11211;SDS011;5663;50.864;12.096;2023-07-09T22:56:10;9.60;;;5.13;;
11211;SDS011;5663;50.864;12.096;2023-07-09T22:58:40;7.60;;;5.43;;
11211;SDS011;5663;50.864;12.096;2023-07-09T23:01:12;7.22;;;5.55;;
11211;SDS011;5663;50.864;12.096;2023-07-09T23:03:48;9.40;;;5.53;;
11211;SDS011;5663;50.864;12.096;2023-07-09T23:06:22;5.82;;;5.20;;
11211;SDS011;5663;50.864;12.096;2023-07-09T23:08:57;6.88;;;5.45;;
11211;SDS011;5663;50.864;12.096;2023-07-09T23:11:33;6.20;;;5.32;;
11211;SDS011;5663;50.864;12.096;2023-07-09T23:14:13;6.93;;;4.88;;
11211;SDS011;5663;50.864;12.096;2023-07-09T23:16:52;8.98;;;5.45;;
11211;SDS011;5663;50.864;12.096;2023-07-09T23:19:28;9.88;;;5.43;;
11211;SDS011;5663;50.864;12.096;2023-07-09T23:22:04;9.23;;;4.70;;
11211;SDS011;5663;50.864;12.096;2023-07-09T23:24:39;7.38;;;5.72;;
11211;SDS011;5663;50.864;12.096;2023-07-09T23:27:14;8.05;;;6.30;;
11211;SDS011;5663;50.864;12.096;2023-07-09T23:29:51;8.30;;;5.47;;
11211;SDS011;5663;50.864;12.096;2023-07-09T23:32:22;6.85;;;4.90;;
11211;SDS011;5663;50.864;12.096;2023-07-09T23:34:52;7.53;;;5.53;;
11211;SDS011;5663;50.864;12.096;2023-07-09T23:37:22;6.10;;;5.50;;
11211;SDS011;5663;50.864;12.096;2023-07-09T23:39:54;12.20;;;6.30;;
11211;SDS011;5663;50.864;12.096;2023-07-09T23:42:27;5.80;;;5.00;;
11211;SDS011;5663;50.864;12.096;2023-07-09T23:45:02;8.10;;;5.47;;
11211;SDS011;5663;50.864;12.096;2023-07-09T23:47:50;7.00;;;5.03;;
11211;SDS011;5663;50.864;12.096;2023-07-09T23:50:34;8.05;;;4.70;;
11211;SDS011;5663;50.864;12.096;2023-07-09T23:53:13;9.05;;;5.78;;
11211;SDS011;5663;50.864;12.096;2023-07-09T23:56:02;7.28;;;5.50;;
11211;SDS011;5663;50.864;12.096;2023-07-09T23:58:34;6.35;;;5.18;;
